sensor_id;sensor_type;location;lat;lon;timestamp;P1;durP1;ratioP1;P2;durP2;ratioP2
59856;SDS011;45733;52.668;6.860;2024-01-30T00:01:22;1.80;;;1.70;;
59856;SDS011;45733;52.668;6.860;2024-01-30T00:03:47;1.98;;;1.88;;
59856;SDS011;45733;52.668;6.860;2024-01-30T00:06:13;1.73;;;1.63;;
59856;SDS011;45733;52.668;6.860;2024-01-30T00:08:39;1.90;;;1.80;;
59856;SDS011;45733;52.668;6.860;2024-01-30T00:11:05;1.80;;;1.70;;
59856;SDS011;45733;52.668;6.860;2024-01-30T00:13:32;1.70;;;1.60;;
59856;SDS011;45733;52.668;6.860;2024-01-30T00:15:57;1.60;;;1.50;;
59856;SDS011;45733;52.668;6.860;2024-01-30T00:18:23;1.63;;;1.52;;
59856;SDS011;45733;52.668;6.860;2024-01-30T00:20:49;1.60;;;1.50;;
59856;SDS011;45733;52.668;6.860;2024-01-30T00:23:14;1.60;;;1.50;;
59856;SDS011;45733;52.668;6.860;2024-01-30T00:25:40;1.33;;;1.33;;
59856;SDS011;45733;52.668;6.860;2024-01-30T00:28:06;1.30;;;1.30;;
59856;SDS011;45733;52.668;6.860;2024-01-30T00:30:31;1.33;;;1.30;;
59856;SDS011;45733;52.668;6.860;2024-01-30T00:32:57;1.20;;;1.20;;
59856;SDS011;45733;52.668;6.860;2024-01-30T00:35:23;1.27;;;1.27;;
59856;SDS011;45733;52.668;6.860;2024-01-30T00:37:48;1.58;;;1.48;;
59856;SDS011;45733;52.668;6.860;2024-01-30T00:40:14;1.50;;;1.40;;
59856;SDS011;45733;52.668;6.860;2024-01-30T00:42:43;1.30;;;1.30;;
59856;SDS011;45733;52.668;6.860;2024-01-30T00:45:15;1.30;;;1.30;;
59856;SDS011;45733;52.668;6.860;2024-01-30T00:47:42;1.60;;;1.50;;
59856;SDS011;45733;52.668;6.860;2024-01-30T00:50:08;1.30;;;1.30;;
59856;SDS011;45733;52.668;6.860;2024-01-30T00:52:37;1.50;;;1.40;;
59856;SDS011;45733;52.668;6.860;2024-01-30T00:55:04;1.50;;;1.40;;
59856;SDS011;45733;52.668;6.860;2024-01-30T00:57:30;1.50;;;1.40;;
59856;SDS011;45733;52.668;6.860;2024-01-30T00:59:56;1.50;;;1.40;;
59856;SDS011;45733;52.668;6.860;2024-01-30T01:02:22;1.88;;;1.77;;
59856;SDS011;45733;52.668;6.860;2024-01-30T01:04:48;1.60;;;1.50;;
59856;SDS011;45733;52.668;6.860;2024-01-30T01:07:13;1.70;;;1.60;;
59856;SDS011;45733;52.668;6.860;2024-01-30T01:09:39;1.60;;;1.50;;
59856;SDS011;45733;52.668;6.860;2024-01-30T01:12:05;1.63;;;1.52;;
59856;SDS011;45733;52.668;6.860;2024-01-30T01:14:31;1.92;;;1.83;;
59856;SDS011;45733;52.668;6.860;2024-01-30T01:16:56;1.80;;;1.70;;
59856;SDS011;45733;52.668;6.860;2024-01-30T01:19:22;1.98;;;1.88;;
59856;SDS011;45733;52.668;6.860;2024-01-30T01:21:48;2.00;;;1.90;;
59856;SDS011;45733;52.668;6.860;2024-01-30T01:24:13;1.80;;;1.70;;
59856;SDS011;45733;52.668;6.860;2024-01-30T01:26:39;1.80;;;1.70;;
59856;SDS011;45733;52.668;6.860;2024-01-30T01:29:08;1.95;;;1.85;;
59856;SDS011;45733;52.668;6.860;2024-01-30T01:31:37;2.10;;;2.00;;
59856;SDS011;45733;52.668;6.860;2024-01-30T01:34:09;1.90;;;1.80;;
59856;SDS011;45733;52.668;6.860;2024-01-30T01:36:35;1.80;;;1.70;;
59856;SDS011;45733;52.668;6.860;2024-01-30T01:39:01;2.00;;;1.90;;
59856;SDS011;45733;52.668;6.860;2024-01-30T01:41:31;1.98;;;1.88;;
59856;SDS011;45733;52.668;6.860;2024-01-30T01:43:57;1.80;;;1.70;;
59856;SDS011;45733;52.668;6.860;2024-01-30T01:46:24;1.70;;;1.60;;
59856;SDS011;45733;52.668;6.860;2024-01-30T01:48:55;1.70;;;1.60;;
59856;SDS011;45733;52.668;6.860;2024-01-30T01:51:21;2.20;;;2.10;;
59856;SDS011;45733;52.668;6.860;2024-01-30T01:53:49;1.90;;;1.80;;
59856;SDS011;45733;52.668;6.860;2024-01-30T01:56:16;1.75;;;1.65;;
59856;SDS011;45733;52.668;6.860;2024-01-30T01:58:43;1.80;;;1.70;;
59856;SDS011;45733;52.668;6.860;2024-01-30T02:01:11;1.70;;;1.60;;
59856;SDS011;45733;52.668;6.860;2024-01-30T02:03:38;1.70;;;1.60;;
59856;SDS011;45733;52.668;6.860;2024-01-30T02:06:06;1.70;;;1.60;;
59856;SDS011;45733;52.668;6.860;2024-01-30T02:08:31;1.65;;;1.55;;
59856;SDS011;45733;52.668;6.860;2024-01-30T02:10:58;1.90;;;1.80;;
59856;SDS011;45733;52.668;6.860;2024-01-30T02:13:24;2.00;;;1.90;;
59856;SDS011;45733;52.668;6.860;2024-01-30T02:15:53;1.75;;;1.65;;
59856;SDS011;45733;52.668;6.860;2024-01-30T02:18:19;2.08;;;1.98;;
59856;SDS011;45733;52.668;6.860;2024-01-30T02:20:46;1.90;;;1.80;;
59856;SDS011;45733;52.668;6.860;2024-01-30T02:23:12;1.90;;;1.80;;
59856;SDS011;45733;52.668;6.860;2024-01-30T02:25:42;2.03;;;1.92;;
59856;SDS011;45733;52.668;6.860;2024-01-30T02:28:11;2.00;;;1.90;;
59856;SDS011;45733;52.668;6.860;2024-01-30T02:30:37;2.05;;;1.95;;
59856;SDS011;45733;52.668;6.860;2024-01-30T02:33:10;1.92;;;1.83;;
59856;SDS011;45733;52.668;6.860;2024-01-30T02:35:36;2.00;;;1.90;;
59856;SDS011;45733;52.668;6.860;2024-01-30T02:38:01;2.00;;;1.90;;
59856;SDS011;45733;52.668;6.860;2024-01-30T02:40:27;2.00;;;1.90;;
59856;SDS011;45733;52.668;6.860;2024-01-30T02:42:53;1.80;;;1.70;;
59856;SDS011;45733;52.668;6.860;2024-01-30T02:45:18;2.10;;;2.00;;
59856;SDS011;45733;52.668;6.860;2024-01-30T02:47:45;1.90;;;1.80;;
59856;SDS011;45733;52.668;6.860;2024-01-30T02:50:11;1.80;;;1.70;;
59856;SDS011;45733;52.668;6.860;2024-01-30T02:52:36;2.10;;;2.00;;
59856;SDS011;45733;52.668;6.860;2024-01-30T02:55:02;1.75;;;1.65;;
59856;SDS011;45733;52.668;6.860;2024-01-30T02:57:28;1.80;;;1.70;;
59856;SDS011;45733;52.668;6.860;2024-01-30T02:59:54;1.98;;;1.88;;
59856;SDS011;45733;52.668;6.860;2024-01-30T03:02:20;1.80;;;1.70;;
59856;SDS011;45733;52.668;6.860;2024-01-30T03:04:45;2.00;;;1.90;;
59856;SDS011;45733;52.668;6.860;2024-01-30T03:07:11;2.00;;;1.90;;
59856;SDS011;45733;52.668;6.860;2024-01-30T03:09:37;1.80;;;1.70;;
59856;SDS011;45733;52.668;6.860;2024-01-30T03:12:03;1.70;;;1.60;;
59856;SDS011;45733;52.668;6.860;2024-01-30T03:14:32;2.00;;;1.90;;
59856;SDS011;45733;52.668;6.860;2024-01-30T03:16:58;1.80;;;1.70;;
59856;SDS011;45733;52.668;6.860;2024-01-30T03:19:24;1.75;;;1.65;;
59856;SDS011;45733;52.668;6.860;2024-01-30T03:21:50;1.70;;;1.60;;
59856;SDS011;45733;52.668;6.860;2024-01-30T03:24:16;1.65;;;1.55;;
59856;SDS011;45733;52.668;6.860;2024-01-30T03:26:42;1.60;;;1.50;;
59856;SDS011;45733;52.668;6.860;2024-01-30T03:29:08;1.60;;;1.50;;
59856;SDS011;45733;52.668;6.860;2024-01-30T03:31:34;1.60;;;1.50;;
59856;SDS011;45733;52.668;6.860;2024-01-30T03:34:00;1.70;;;1.60;;
59856;SDS011;45733;52.668;6.860;2024-01-30T03:36:26;1.60;;;1.50;;
59856;SDS011;45733;52.668;6.860;2024-01-30T03:38:52;1.60;;;1.50;;
59856;SDS011;45733;52.668;6.860;2024-01-30T03:41:18;1.30;;;1.30;;
59856;SDS011;45733;52.668;6.860;2024-01-30T03:43:43;1.55;;;1.45;;
59856;SDS011;45733;52.668;6.860;2024-01-30T03:46:11;1.30;;;1.30;;
59856;SDS011;45733;52.668;6.860;2024-01-30T03:48:37;1.55;;;1.45;;
59856;SDS011;45733;52.668;6.860;2024-01-30T03:51:03;1.30;;;1.30;;
59856;SDS011;45733;52.668;6.860;2024-01-30T03:53:29;1.30;;;1.30;;
59856;SDS011;45733;52.668;6.860;2024-01-30T03:55:55;1.30;;;1.30;;
59856;SDS011;45733;52.668;6.860;2024-01-30T03:58:20;1.15;;;1.15;;
59856;SDS011;45733;52.668;6.860;2024-01-30T04:00:47;1.30;;;1.30;;
59856;SDS011;45733;52.668;6.860;2024-01-30T04:03:12;1.20;;;1.20;;
59856;SDS011;45733;52.668;6.860;2024-01-30T04:05:40;1.30;;;1.30;;
59856;SDS011;45733;52.668;6.860;2024-01-30T04:08:06;1.48;;;1.40;;
59856;SDS011;45733;52.668;6.860;2024-01-30T04:10:33;1.30;;;1.30;;
59856;SDS011;45733;52.668;6.860;2024-01-30T04:12:58;1.30;;;1.30;;
59856;SDS011;45733;52.668;6.860;2024-01-30T04:15:25;1.20;;;1.20;;
59856;SDS011;45733;52.668;6.860;2024-01-30T04:17:50;1.50;;;1.40;;
59856;SDS011;45733;52.668;6.860;2024-01-30T04:20:16;1.20;;;1.20;;
59856;SDS011;45733;52.668;6.860;2024-01-30T04:22:45;1.30;;;1.30;;
59856;SDS011;45733;52.668;6.860;2024-01-30T04:25:12;1.20;;;1.20;;
59856;SDS011;45733;52.668;6.860;2024-01-30T04:27:38;1.60;;;1.50;;
59856;SDS011;45733;52.668;6.860;2024-01-30T04:30:04;1.20;;;1.20;;
59856;SDS011;45733;52.668;6.860;2024-01-30T04:32:31;1.20;;;1.20;;
59856;SDS011;45733;52.668;6.860;2024-01-30T04:34:57;1.15;;;1.15;;
59856;SDS011;45733;52.668;6.860;2024-01-30T04:37:23;1.13;;;1.13;;
59856;SDS011;45733;52.668;6.860;2024-01-30T04:39:49;1.10;;;1.10;;
59856;SDS011;45733;52.668;6.860;2024-01-30T04:42:16;1.17;;;1.17;;
59856;SDS011;45733;52.668;6.860;2024-01-30T04:44:42;1.10;;;1.10;;
59856;SDS011;45733;52.668;6.860;2024-01-30T04:47:08;1.02;;;1.02;;
59856;SDS011;45733;52.668;6.860;2024-01-30T04:49:36;1.08;;;1.08;;
59856;SDS011;45733;52.668;6.860;2024-01-30T04:52:02;1.63;;;1.55;;
59856;SDS011;45733;52.668;6.860;2024-01-30T04:54:27;1.08;;;1.08;;
59856;SDS011;45733;52.668;6.860;2024-01-30T04:56:53;1.10;;;1.10;;
59856;SDS011;45733;52.668;6.860;2024-01-30T04:59:19;1.10;;;1.10;;
59856;SDS011;45733;52.668;6.860;2024-01-30T05:01:44;1.00;;;1.00;;
59856;SDS011;45733;52.668;6.860;2024-01-30T05:04:10;1.00;;;1.00;;
59856;SDS011;45733;52.668;6.860;2024-01-30T05:06:36;1.00;;;1.00;;
59856;SDS011;45733;52.668;6.860;2024-01-30T05:09:02;1.00;;;1.00;;
59856;SDS011;45733;52.668;6.860;2024-01-30T05:11:31;1.00;;;1.00;;
59856;SDS011;45733;52.668;6.860;2024-01-30T05:13:56;1.00;;;1.00;;
59856;SDS011;45733;52.668;6.860;2024-01-30T05:16:22;1.10;;;1.10;;
59856;SDS011;45733;52.668;6.860;2024-01-30T05:18:48;1.00;;;1.00;;
59856;SDS011;45733;52.668;6.860;2024-01-30T05:21:13;1.00;;;1.00;;
59856;SDS011;45733;52.668;6.860;2024-01-30T05:23:40;0.90;;;0.90;;
59856;SDS011;45733;52.668;6.860;2024-01-30T05:26:07;1.00;;;1.00;;
59856;SDS011;45733;52.668;6.860;2024-01-30T05:28:33;1.00;;;1.00;;
59856;SDS011;45733;52.668;6.860;2024-01-30T05:30:58;0.90;;;0.90;;
59856;SDS011;45733;52.668;6.860;2024-01-30T05:33:24;1.00;;;1.00;;
59856;SDS011;45733;52.668;6.860;2024-01-30T05:35:50;0.90;;;0.90;;
59856;SDS011;45733;52.668;6.860;2024-01-30T05:38:19;0.98;;;0.98;;
59856;SDS011;45733;52.668;6.860;2024-01-30T05:40:45;0.90;;;0.90;;
59856;SDS011;45733;52.668;6.860;2024-01-30T05:43:11;0.90;;;0.90;;
59856;SDS011;45733;52.668;6.860;2024-01-30T05:45:36;0.90;;;0.90;;
59856;SDS011;45733;52.668;6.860;2024-01-30T05:48:02;1.10;;;1.00;;
59856;SDS011;45733;52.668;6.860;2024-01-30T05:50:29;1.00;;;1.00;;
59856;SDS011;45733;52.668;6.860;2024-01-30T05:52:54;0.95;;;0.95;;
59856;SDS011;45733;52.668;6.860;2024-01-30T05:55:20;1.08;;;1.08;;
59856;SDS011;45733;52.668;6.860;2024-01-30T05:57:46;1.00;;;1.00;;
59856;SDS011;45733;52.668;6.860;2024-01-30T06:00:12;0.90;;;0.90;;
59856;SDS011;45733;52.668;6.860;2024-01-30T06:02:38;1.00;;;1.00;;
59856;SDS011;45733;52.668;6.860;2024-01-30T06:05:04;0.90;;;0.90;;
59856;SDS011;45733;52.668;6.860;2024-01-30T06:07:29;0.90;;;0.90;;
59856;SDS011;45733;52.668;6.860;2024-01-30T06:09:55;1.00;;;1.00;;
59856;SDS011;45733;52.668;6.860;2024-01-30T06:12:21;0.95;;;0.95;;
59856;SDS011;45733;52.668;6.860;2024-01-30T06:14:46;0.98;;;0.98;;
59856;SDS011;45733;52.668;6.860;2024-01-30T06:17:12;0.95;;;0.95;;
59856;SDS011;45733;52.668;6.860;2024-01-30T06:19:38;0.90;;;0.90;;
59856;SDS011;45733;52.668;6.860;2024-01-30T06:22:04;0.90;;;0.90;;
59856;SDS011;45733;52.668;6.860;2024-01-30T06:24:30;0.98;;;0.98;;
59856;SDS011;45733;52.668;6.860;2024-01-30T06:26:56;0.90;;;0.90;;
59856;SDS011;45733;52.668;6.860;2024-01-30T06:29:22;1.15;;;1.15;;
59856;SDS011;45733;52.668;6.860;2024-01-30T06:31:49;0.90;;;0.90;;
59856;SDS011;45733;52.668;6.860;2024-01-30T06:34:15;0.90;;;0.90;;
59856;SDS011;45733;52.668;6.860;2024-01-30T06:36:41;1.02;;;1.02;;
59856;SDS011;45733;52.668;6.860;2024-01-30T06:39:07;0.90;;;0.90;;
59856;SDS011;45733;52.668;6.860;2024-01-30T06:41:32;0.90;;;0.90;;
59856;SDS011;45733;52.668;6.860;2024-01-30T06:43:58;0.90;;;0.90;;
59856;SDS011;45733;52.668;6.860;2024-01-30T06:46:24;1.00;;;1.00;;
59856;SDS011;45733;52.668;6.860;2024-01-30T06:48:50;0.95;;;0.95;;
59856;SDS011;45733;52.668;6.860;2024-01-30T06:51:16;1.00;;;1.00;;
59856;SDS011;45733;52.668;6.860;2024-01-30T06:53:41;0.90;;;0.90;;
59856;SDS011;45733;52.668;6.860;2024-01-30T06:56:07;0.95;;;0.95;;
59856;SDS011;45733;52.668;6.860;2024-01-30T06:58:33;0.90;;;0.90;;
59856;SDS011;45733;52.668;6.860;2024-01-30T07:00:59;0.90;;;0.90;;
59856;SDS011;45733;52.668;6.860;2024-01-30T07:03:25;0.90;;;0.90;;
59856;SDS011;45733;52.668;6.860;2024-01-30T07:05:50;0.95;;;0.95;;
59856;SDS011;45733;52.668;6.860;2024-01-30T07:08:16;0.90;;;0.90;;
59856;SDS011;45733;52.668;6.860;2024-01-30T07:10:43;0.90;;;0.90;;
59856;SDS011;45733;52.668;6.860;2024-01-30T07:13:08;0.90;;;0.90;;
59856;SDS011;45733;52.668;6.860;2024-01-30T07:15:35;0.90;;;0.90;;
59856;SDS011;45733;52.668;6.860;2024-01-30T07:18:02;0.90;;;0.90;;
59856;SDS011;45733;52.668;6.860;2024-01-30T07:20:28;0.90;;;0.90;;
59856;SDS011;45733;52.668;6.860;2024-01-30T07:22:55;1.00;;;1.00;;
59856;SDS011;45733;52.668;6.860;2024-01-30T07:25:21;0.90;;;0.90;;
59856;SDS011;45733;52.668;6.860;2024-01-30T07:27:51;0.90;;;0.90;;
59856;SDS011;45733;52.668;6.860;2024-01-30T07:30:17;0.90;;;0.90;;
59856;SDS011;45733;52.668;6.860;2024-01-30T07:32:43;0.90;;;0.90;;
59856;SDS011;45733;52.668;6.860;2024-01-30T07:35:09;0.90;;;0.90;;
59856;SDS011;45733;52.668;6.860;2024-01-30T07:37:36;0.90;;;0.90;;
59856;SDS011;45733;52.668;6.860;2024-01-30T07:40:02;0.90;;;0.90;;
59856;SDS011;45733;52.668;6.860;2024-01-30T07:42:28;0.90;;;0.90;;
59856;SDS011;45733;52.668;6.860;2024-01-30T07:44:54;0.90;;;0.90;;
59856;SDS011;45733;52.668;6.860;2024-01-30T07:47:20;0.90;;;0.90;;
59856;SDS011;45733;52.668;6.860;2024-01-30T07:49:46;0.90;;;0.90;;
59856;SDS011;45733;52.668;6.860;2024-01-30T07:52:12;1.02;;;1.00;;
59856;SDS011;45733;52.668;6.860;2024-01-30T07:54:47;0.90;;;0.90;;
59856;SDS011;45733;52.668;6.860;2024-01-30T07:57:15;1.00;;;1.00;;
59856;SDS011;45733;52.668;6.860;2024-01-30T07:59:42;0.90;;;0.90;;
59856;SDS011;45733;52.668;6.860;2024-01-30T08:02:09;0.90;;;0.90;;
59856;SDS011;45733;52.668;6.860;2024-01-30T08:04:35;1.00;;;1.00;;
59856;SDS011;45733;52.668;6.860;2024-01-30T08:07:01;0.95;;;0.95;;
59856;SDS011;45733;52.668;6.860;2024-01-30T08:09:27;0.90;;;0.90;;
59856;SDS011;45733;52.668;6.860;2024-01-30T08:11:53;0.90;;;0.90;;
59856;SDS011;45733;52.668;6.860;2024-01-30T08:14:18;1.00;;;1.00;;
59856;SDS011;45733;52.668;6.860;2024-01-30T08:16:44;0.90;;;0.90;;
59856;SDS011;45733;52.668;6.860;2024-01-30T08:19:10;0.90;;;0.90;;
59856;SDS011;45733;52.668;6.860;2024-01-30T08:21:35;0.90;;;0.90;;
59856;SDS011;45733;52.668;6.860;2024-01-30T08:24:04;0.90;;;0.90;;
59856;SDS011;45733;52.668;6.860;2024-01-30T08:26:31;0.90;;;0.90;;
59856;SDS011;45733;52.668;6.860;2024-01-30T08:28:58;0.90;;;0.90;;
59856;SDS011;45733;52.668;6.860;2024-01-30T08:31:23;0.90;;;0.90;;
59856;SDS011;45733;52.668;6.860;2024-01-30T08:33:49;0.90;;;0.90;;
59856;SDS011;45733;52.668;6.860;2024-01-30T08:36:15;1.00;;;1.00;;
59856;SDS011;45733;52.668;6.860;2024-01-30T08:38:41;0.90;;;0.90;;
59856;SDS011;45733;52.668;6.860;2024-01-30T08:41:07;1.00;;;1.00;;
59856;SDS011;45733;52.668;6.860;2024-01-30T08:43:33;0.90;;;0.90;;
59856;SDS011;45733;52.668;6.860;2024-01-30T08:45:59;0.90;;;0.90;;
59856;SDS011;45733;52.668;6.860;2024-01-30T08:48:25;0.90;;;0.90;;
59856;SDS011;45733;52.668;6.860;2024-01-30T08:50:51;0.90;;;0.90;;
59856;SDS011;45733;52.668;6.860;2024-01-30T08:53:17;0.90;;;0.90;;
59856;SDS011;45733;52.668;6.860;2024-01-30T08:55:42;0.88;;;0.88;;
59856;SDS011;45733;52.668;6.860;2024-01-30T08:58:08;0.90;;;0.90;;
59856;SDS011;45733;52.668;6.860;2024-01-30T09:00:34;0.93;;;0.93;;
59856;SDS011;45733;52.668;6.860;2024-01-30T09:03:00;1.00;;;1.00;;
59856;SDS011;45733;52.668;6.860;2024-01-30T09:05:25;0.90;;;0.90;;
59856;SDS011;45733;52.668;6.860;2024-01-30T09:07:51;0.90;;;0.90;;
59856;SDS011;45733;52.668;6.860;2024-01-30T09:10:16;1.00;;;1.00;;
59856;SDS011;45733;52.668;6.860;2024-01-30T09:12:42;0.90;;;0.90;;
59856;SDS011;45733;52.668;6.860;2024-01-30T09:15:08;0.90;;;0.90;;
59856;SDS011;45733;52.668;6.860;2024-01-30T09:17:34;0.90;;;0.90;;
59856;SDS011;45733;52.668;6.860;2024-01-30T09:19:59;0.90;;;0.90;;
59856;SDS011;45733;52.668;6.860;2024-01-30T09:22:25;0.90;;;0.90;;
59856;SDS011;45733;52.668;6.860;2024-01-30T09:24:51;0.90;;;0.90;;
59856;SDS011;45733;52.668;6.860;2024-01-30T09:27:16;0.90;;;0.90;;
59856;SDS011;45733;52.668;6.860;2024-01-30T09:29:42;0.90;;;0.90;;
59856;SDS011;45733;52.668;6.860;2024-01-30T09:32:08;0.90;;;0.90;;
59856;SDS011;45733;52.668;6.860;2024-01-30T09:34:34;1.00;;;1.00;;
59856;SDS011;45733;52.668;6.860;2024-01-30T09:37:00;0.90;;;0.90;;
59856;SDS011;45733;52.668;6.860;2024-01-30T09:39:26;0.93;;;0.93;;
59856;SDS011;45733;52.668;6.860;2024-01-30T09:41:55;0.90;;;0.90;;
59856;SDS011;45733;52.668;6.860;2024-01-30T09:44:31;0.90;;;0.90;;
59856;SDS011;45733;52.668;6.860;2024-01-30T09:46:59;0.90;;;0.90;;
59856;SDS011;45733;52.668;6.860;2024-01-30T09:49:29;1.00;;;1.00;;
59856;SDS011;45733;52.668;6.860;2024-01-30T09:51:57;0.90;;;0.90;;
59856;SDS011;45733;52.668;6.860;2024-01-30T09:54:23;0.80;;;0.80;;
59856;SDS011;45733;52.668;6.860;2024-01-30T09:56:48;0.90;;;0.90;;
59856;SDS011;45733;52.668;6.860;2024-01-30T09:59:14;0.93;;;0.93;;
59856;SDS011;45733;52.668;6.860;2024-01-30T10:01:40;0.82;;;0.82;;
59856;SDS011;45733;52.668;6.860;2024-01-30T10:04:07;0.90;;;0.90;;
59856;SDS011;45733;52.668;6.860;2024-01-30T10:06:33;0.90;;;0.90;;
59856;SDS011;45733;52.668;6.860;2024-01-30T10:08:59;0.85;;;0.85;;
59856;SDS011;45733;52.668;6.860;2024-01-30T10:11:25;1.00;;;1.00;;
59856;SDS011;45733;52.668;6.860;2024-01-30T10:13:50;0.90;;;0.90;;
59856;SDS011;45733;52.668;6.860;2024-01-30T10:16:16;0.90;;;0.90;;
59856;SDS011;45733;52.668;6.860;2024-01-30T10:18:42;1.00;;;1.00;;
59856;SDS011;45733;52.668;6.860;2024-01-30T10:21:08;0.90;;;0.90;;
59856;SDS011;45733;52.668;6.860;2024-01-30T10:23:35;1.10;;;1.10;;
59856;SDS011;45733;52.668;6.860;2024-01-30T10:26:04;0.90;;;0.90;;
59856;SDS011;45733;52.668;6.860;2024-01-30T10:28:32;0.90;;;0.90;;
59856;SDS011;45733;52.668;6.860;2024-01-30T10:30:59;0.90;;;0.90;;
59856;SDS011;45733;52.668;6.860;2024-01-30T10:33:25;1.00;;;1.00;;
59856;SDS011;45733;52.668;6.860;2024-01-30T10:35:54;1.00;;;1.00;;
59856;SDS011;45733;52.668;6.860;2024-01-30T10:38:24;1.00;;;1.00;;
59856;SDS011;45733;52.668;6.860;2024-01-30T10:40:54;1.00;;;1.00;;
59856;SDS011;45733;52.668;6.860;2024-01-30T10:43:22;1.10;;;1.10;;
59856;SDS011;45733;52.668;6.860;2024-01-30T10:45:50;1.10;;;1.10;;
59856;SDS011;45733;52.668;6.860;2024-01-30T10:48:18;1.00;;;1.00;;
59856;SDS011;45733;52.668;6.860;2024-01-30T10:50:51;1.17;;;1.17;;
59856;SDS011;45733;52.668;6.860;2024-01-30T10:53:20;1.10;;;1.10;;
59856;SDS011;45733;52.668;6.860;2024-01-30T10:55:47;1.10;;;1.10;;
59856;SDS011;45733;52.668;6.860;2024-01-30T10:58:13;1.10;;;1.10;;
59856;SDS011;45733;52.668;6.860;2024-01-30T11:00:40;1.27;;;1.27;;
59856;SDS011;45733;52.668;6.860;2024-01-30T11:03:06;1.27;;;1.27;;
59856;SDS011;45733;52.668;6.860;2024-01-30T11:05:33;1.20;;;1.20;;
59856;SDS011;45733;52.668;6.860;2024-01-30T11:07:58;1.13;;;1.13;;
59856;SDS011;45733;52.668;6.860;2024-01-30T11:10:24;1.27;;;1.27;;
59856;SDS011;45733;52.668;6.860;2024-01-30T11:12:50;1.25;;;1.25;;
59856;SDS011;45733;52.668;6.860;2024-01-30T11:15:16;1.30;;;1.30;;
59856;SDS011;45733;52.668;6.860;2024-01-30T11:20:21;1.20;;;1.20;;
59856;SDS011;45733;52.668;6.860;2024-01-30T11:22:52;1.30;;;1.30;;
59856;SDS011;45733;52.668;6.860;2024-01-30T11:25:20;1.38;;;1.27;;
59856;SDS011;45733;52.668;6.860;2024-01-30T11:27:46;1.17;;;1.17;;
59856;SDS011;45733;52.668;6.860;2024-01-30T11:35:40;1.20;;;1.20;;
59856;SDS011;45733;52.668;6.860;2024-01-30T11:38:07;1.15;;;1.15;;
59856;SDS011;45733;52.668;6.860;2024-01-30T11:40:36;1.25;;;1.25;;
59856;SDS011;45733;52.668;6.860;2024-01-30T11:43:03;1.10;;;1.10;;
59856;SDS011;45733;52.668;6.860;2024-01-30T11:45:31;1.30;;;1.30;;
59856;SDS011;45733;52.668;6.860;2024-01-30T11:47:57;1.30;;;1.30;;
59856;SDS011;45733;52.668;6.860;2024-01-30T11:50:25;1.20;;;1.20;;
59856;SDS011;45733;52.668;6.860;2024-01-30T11:52:51;1.50;;;1.40;;
59856;SDS011;45733;52.668;6.860;2024-01-30T11:55:17;1.30;;;1.30;;
59856;SDS011;45733;52.668;6.860;2024-01-30T11:57:44;1.50;;;1.40;;
59856;SDS011;45733;52.668;6.860;2024-01-30T12:00:16;1.30;;;1.30;;
59856;SDS011;45733;52.668;6.860;2024-01-30T12:02:43;1.50;;;1.40;;
59856;SDS011;45733;52.668;6.860;2024-01-30T12:05:13;1.23;;;1.23;;
59856;SDS011;45733;52.668;6.860;2024-01-30T12:07:39;1.30;;;1.30;;
59856;SDS011;45733;52.668;6.860;2024-01-30T12:10:05;1.50;;;1.40;;
59856;SDS011;45733;52.668;6.860;2024-01-30T12:12:32;1.30;;;1.30;;
59856;SDS011;45733;52.668;6.860;2024-01-30T12:14:58;1.60;;;1.50;;
59856;SDS011;45733;52.668;6.860;2024-01-30T12:17:28;1.60;;;1.50;;
59856;SDS011;45733;52.668;6.860;2024-01-30T12:22:41;1.70;;;1.60;;
59856;SDS011;45733;52.668;6.860;2024-01-30T12:25:11;1.60;;;1.50;;
59856;SDS011;45733;52.668;6.860;2024-01-30T12:27:38;1.65;;;1.55;;
59856;SDS011;45733;52.668;6.860;2024-01-30T12:30:08;1.63;;;1.52;;
59856;SDS011;45733;52.668;6.860;2024-01-30T12:32:39;1.70;;;1.60;;
59856;SDS011;45733;52.668;6.860;2024-01-30T12:35:13;1.60;;;1.50;;
59856;SDS011;45733;52.668;6.860;2024-01-30T12:37:40;1.42;;;1.38;;
59856;SDS011;45733;52.668;6.860;2024-01-30T12:40:07;1.20;;;1.20;;
59856;SDS011;45733;52.668;6.860;2024-01-30T12:42:34;1.50;;;1.40;;
59856;SDS011;45733;52.668;6.860;2024-01-30T12:45:01;1.50;;;1.40;;
59856;SDS011;45733;52.668;6.860;2024-01-30T12:47:28;2.13;;;2.03;;
59856;SDS011;45733;52.668;6.860;2024-01-30T12:49:54;1.92;;;1.83;;
59856;SDS011;45733;52.668;6.860;2024-01-30T12:52:20;2.40;;;2.30;;
59856;SDS011;45733;52.668;6.860;2024-01-30T12:54:47;1.80;;;1.70;;
59856;SDS011;45733;52.668;6.860;2024-01-30T12:57:13;2.30;;;2.20;;
59856;SDS011;45733;52.668;6.860;2024-01-30T12:59:39;2.00;;;1.90;;
59856;SDS011;45733;52.668;6.860;2024-01-30T13:02:04;2.20;;;2.10;;
59856;SDS011;45733;52.668;6.860;2024-01-30T13:04:31;2.00;;;1.90;;
59856;SDS011;45733;52.668;6.860;2024-01-30T13:06:57;1.95;;;1.85;;
59856;SDS011;45733;52.668;6.860;2024-01-30T13:09:23;1.90;;;1.80;;
59856;SDS011;45733;52.668;6.860;2024-01-30T13:11:49;1.73;;;1.63;;
59856;SDS011;45733;52.668;6.860;2024-01-30T13:14:16;1.80;;;1.70;;
59856;SDS011;45733;52.668;6.860;2024-01-30T13:16:42;1.80;;;1.70;;
59856;SDS011;45733;52.668;6.860;2024-01-30T13:19:08;1.70;;;1.60;;
59856;SDS011;45733;52.668;6.860;2024-01-30T13:21:34;1.90;;;1.80;;
59856;SDS011;45733;52.668;6.860;2024-01-30T13:24:00;1.73;;;1.63;;
59856;SDS011;45733;52.668;6.860;2024-01-30T13:26:25;1.67;;;1.58;;
59856;SDS011;45733;52.668;6.860;2024-01-30T13:28:51;1.63;;;1.52;;
59856;SDS011;45733;52.668;6.860;2024-01-30T13:31:17;1.60;;;1.50;;
59856;SDS011;45733;52.668;6.860;2024-01-30T13:33:43;1.55;;;1.45;;
59856;SDS011;45733;52.668;6.860;2024-01-30T13:36:09;1.65;;;1.55;;
59856;SDS011;45733;52.668;6.860;2024-01-30T13:38:36;1.27;;;1.27;;
59856;SDS011;45733;52.668;6.860;2024-01-30T13:41:03;1.33;;;1.33;;
59856;SDS011;45733;52.668;6.860;2024-01-30T13:43:29;1.60;;;1.50;;
59856;SDS011;45733;52.668;6.860;2024-01-30T13:45:54;1.45;;;1.35;;
59856;SDS011;45733;52.668;6.860;2024-01-30T13:48:20;1.30;;;1.30;;
59856;SDS011;45733;52.668;6.860;2024-01-30T13:50:47;1.27;;;1.27;;
59856;SDS011;45733;52.668;6.860;2024-01-30T13:53:13;1.20;;;1.20;;
59856;SDS011;45733;52.668;6.860;2024-01-30T13:55:39;1.20;;;1.20;;
59856;SDS011;45733;52.668;6.860;2024-01-30T13:58:05;1.30;;;1.30;;
59856;SDS011;45733;52.668;6.860;2024-01-30T14:00:31;1.30;;;1.30;;
59856;SDS011;45733;52.668;6.860;2024-01-30T14:02:57;1.30;;;1.30;;
59856;SDS011;45733;52.668;6.860;2024-01-30T14:05:24;1.20;;;1.20;;
59856;SDS011;45733;52.668;6.860;2024-01-30T14:07:50;1.20;;;1.20;;
59856;SDS011;45733;52.668;6.860;2024-01-30T14:10:17;1.20;;;1.20;;
59856;SDS011;45733;52.668;6.860;2024-01-30T14:12:43;1.10;;;1.10;;
59856;SDS011;45733;52.668;6.860;2024-01-30T14:15:09;1.13;;;1.13;;
59856;SDS011;45733;52.668;6.860;2024-01-30T14:17:36;1.00;;;1.00;;
59856;SDS011;45733;52.668;6.860;2024-01-30T14:20:02;0.90;;;0.90;;
59856;SDS011;45733;52.668;6.860;2024-01-30T14:22:32;1.00;;;1.00;;
59856;SDS011;45733;52.668;6.860;2024-01-30T14:24:58;0.90;;;0.90;;
59856;SDS011;45733;52.668;6.860;2024-01-30T14:27:24;1.00;;;1.00;;
59856;SDS011;45733;52.668;6.860;2024-01-30T14:29:50;0.90;;;0.90;;
59856;SDS011;45733;52.668;6.860;2024-01-30T14:32:16;0.90;;;0.90;;
59856;SDS011;45733;52.668;6.860;2024-01-30T14:34:41;0.90;;;0.90;;
59856;SDS011;45733;52.668;6.860;2024-01-30T14:37:07;0.90;;;0.90;;
59856;SDS011;45733;52.668;6.860;2024-01-30T14:39:33;0.80;;;0.80;;
59856;SDS011;45733;52.668;6.860;2024-01-30T14:41:59;0.93;;;0.93;;
59856;SDS011;45733;52.668;6.860;2024-01-30T14:44:25;0.80;;;0.80;;
59856;SDS011;45733;52.668;6.860;2024-01-30T14:46:51;0.90;;;0.90;;
59856;SDS011;45733;52.668;6.860;2024-01-30T14:49:17;0.80;;;0.80;;
59856;SDS011;45733;52.668;6.860;2024-01-30T14:51:42;0.90;;;0.90;;
59856;SDS011;45733;52.668;6.860;2024-01-30T14:54:08;0.85;;;0.85;;